Time;durP1;ratioP1;P1;durP2;ratioP2;P2;SDS_P1;SDS_P2;PMS_P1;PMS_P2;Temp;Humidity;BMP_temperature;BMP_pressure;BME280_temperature;BME280_humidity;BME280_pressure;Samples;Min_cycle;Max_cycle;Signal;HPM_P1;HPM_P2
2022/01/13 00:04:54;;;;;;;59.20;20.75;;;;;;;4.41;100.00;103597.22;10171707;28;20046;-65
2022/01/13 00:09:51;;;;;;;55.30;19.10;;;;;;;4.34;100.00;103590.09;10186666;28;20042;-66
2022/01/13 00:15:08;;;;;;;58.83;22.48;;;;;;;4.30;100.00;103586.16;10180504;28;20104;-66
2022/01/13 00:20:58;;;;;;;66.28;22.17;;;;;;;4.32;100.00;103603.88;10175586;28;20108;-65
2022/01/13 00:25:37;;;;;;;62.17;20.90;;;;;;;4.34;100.00;103612.63;10136420;28;20046;-64
2022/01/13 00:30:34;;;;;;;55.47;19.85;;;;;;;4.37;100.00;103605.97;10175269;28;20046;-64
2022/01/13 00:35:30;;;;;;;68.22;23.15;;;;;;;4.35;100.00;103617.00;10152792;28;20439;-64
2022/01/13 00:40:26;;;;;;;79.38;24.35;;;;;;;4.36;100.00;103632.22;10181400;28;20568;-63
2022/01/13 00:45:23;;;;;;;68.07;23.55;;;;;;;4.41;100.00;103629.72;10175926;28;20741;-64
2022/01/13 00:50:19;;;;;;;70.97;25.08;;;;;;;4.49;100.00;103636.00;10151039;28;20526;-64
2022/01/13 00:55:21;;;;;;;65.93;21.70;;;;;;;4.50;100.00;103638.47;10174968;28;20058;-63
2022/01/13 01:00:18;;;;;;;68.90;24.90;;;;;;;4.51;100.00;103623.09;10161707;28;20046;-62
2022/01/13 01:05:14;;;;;;;69.72;22.58;;;;;;;4.54;100.00;103611.81;10168136;28;20133;-62
2022/01/13 01:10:11;;;;;;;79.05;23.13;;;;;;;4.51;100.00;103617.66;10137705;28;20047;-62
2022/01/13 01:15:08;;;;;;;76.57;23.95;;;;;;;4.51;100.00;103601.41;10162043;28;20086;-65
2022/01/13 01:20:07;;;;;;;75.30;24.63;;;;;;;4.53;100.00;103592.03;10171173;28;20089;-66
2022/01/13 01:30:23;;;;;;;69.72;23.38;;;;;;;4.58;100.00;103596.81;10173132;28;20701;-62
2022/01/13 01:35:24;;;;;;;81.88;24.55;;;;;;;4.51;100.00;103591.41;10160083;28;20082;-62
2022/01/13 01:40:22;;;;;;;71.20;21.40;;;;;;;4.53;100.00;103583.91;10170528;28;20054;-62
2022/01/13 01:45:19;;;;;;;88.40;26.10;;;;;;;4.53;100.00;103583.06;10166824;28;20081;-62
2022/01/13 01:50:18;;;;;;;69.45;21.25;;;;;;;4.52;100.00;103589.50;10153652;28;20058;-65
2022/01/13 01:55:16;;;;;;;76.38;23.58;;;;;;;4.56;100.00;103588.06;10156623;28;20076;-65
2022/01/13 02:00:15;;;;;;;79.70;25.60;;;;;;;4.55;100.00;103572.81;10180587;28;20763;-65
2022/01/13 02:05:12;;;;;;;82.68;25.77;;;;;;;4.64;100.00;103566.16;10170533;28;20082;-65
2022/01/13 02:10:09;;;;;;;91.82;25.77;;;;;;;4.62;100.00;103560.16;10183296;28;20132;-65
2022/01/13 02:20:10;;;;;;;94.40;27.20;;;;;;;4.65;100.00;103551.59;10167773;28;20057;-64
2022/01/13 02:25:07;;;;;;;85.07;27.33;;;;;;;4.74;100.00;103547.63;10154373;28;20064;-63
2022/01/13 02:30:04;;;;;;;80.30;26.60;;;;;;;4.76;100.00;103548.25;10176154;28;20093;-63
2022/01/13 02:35:00;;;;;;;94.00;26.65;;;;;;;4.79;100.00;103542.41;10163986;28;20092;-63
2022/01/13 02:39:56;;;;;;;91.88;26.83;;;;;;;4.80;100.00;103541.38;10169670;28;20053;-64
2022/01/13 02:45:02;;;;;;;84.93;26.10;;;;;;;4.76;100.00;103545.53;10138124;28;20054;-63
2022/01/13 02:49:59;;;;;;;96.78;27.25;;;;;;;4.66;100.00;103538.88;10152401;28;20047;-63
2022/01/13 02:54:56;;;;;;;89.35;25.30;;;;;;;4.70;100.00;103551.78;10121247;28;20540;-63
2022/01/13 02:59:53;;;;;;;102.03;30.75;;;;;;;4.70;100.00;103535.53;10147103;28;20146;-64
2022/01/13 03:04:50;;;;;;;77.03;26.27;;;;;;;4.76;100.00;103540.13;10161589;28;20073;-63
2022/01/13 03:09:46;;;;;;;83.95;26.17;;;;;;;4.79;100.00;103522.59;10191869;28;20077;-63
2022/01/13 03:14:43;;;;;;;70.00;21.35;;;;;;;4.78;100.00;103516.34;10188509;28;20852;-66
2022/01/13 03:19:40;;;;;;;81.00;24.25;;;;;;;4.84;100.00;103507.34;10158813;28;20813;-63
2022/01/13 03:24:36;;;;;;;76.22;23.52;;;;;;;4.84;100.00;103518.19;10187410;28;20120;-62
2022/01/13 03:29:33;;;;;;;77.22;24.30;;;;;;;4.92;100.00;103532.59;10163780;28;20104;-62
2022/01/13 03:34:29;;;;;;;70.53;22.90;;;;;;;4.90;100.00;103546.38;10158228;28;20114;-63
2022/01/13 03:39:26;;;;;;;74.60;24.73;;;;;;;4.90;100.00;103548.22;10159273;28;20121;-63
2022/01/13 03:44:28;;;;;;;64.72;24.02;;;;;;;4.98;100.00;103545.31;10157705;28;20073;-64
2022/01/13 03:49:25;;;;;;;72.15;24.98;;;;;;;4.99;100.00;103541.53;10153882;28;20053;-62
2022/01/13 03:55:01;;;;;;;62.30;20.65;;;;;;;5.01;100.00;103542.16;10152479;28;20073;-62
2022/01/13 04:00:42;;;;;;;66.78;26.65;;;;;;;5.01;100.00;103520.47;10166138;28;20054;-62
2022/01/13 04:05:59;;;;;;;62.35;22.55;;;;;;;5.02;100.00;103505.88;10157693;28;20457;-62
2022/01/13 04:11:05;;;;;;;64.72;21.85;;;;;;;5.01;100.00;103504.19;10140383;28;20088;-65
2022/01/13 04:16:01;;;;;;;63.55;24.90;;;;;;;4.93;100.00;103496.31;10179257;28;20080;-65
2022/01/13 04:20:58;;;;;;;61.22;24.45;;;;;;;4.97;100.00;103503.81;10165778;28;20073;-65
2022/01/13 04:25:54;;;;;;;58.28;21.15;;;;;;;4.94;100.00;103514.22;10152294;28;20070;-66
2022/01/13 04:30:53;;;;;;;60.53;21.00;;;;;;;4.99;100.00;103500.88;10175115;28;20082;-66
2022/01/13 04:35:50;;;;;;;59.90;21.85;;;;;;;5.00;100.00;103497.94;10166188;28;20125;-66
2022/01/13 04:40:49;;;;;;;57.72;22.00;;;;;;;5.03;100.00;103493.97;10176199;28;20068;-65
2022/01/13 04:45:47;;;;;;;60.03;22.75;;;;;;;4.99;100.00;103495.44;10191917;28;20045;-65
2022/01/13 04:50:44;;;;;;;68.68;21.88;;;;;;;5.02;100.00;103492.31;10158417;28;20073;-65
2022/01/13 04:55:49;;;;;;;64.25;22.17;;;;;;;5.01;100.00;103486.06;10178432;28;20458;-63
2022/01/13 05:00:45;;;;;;;61.85;23.10;;;;;;;4.91;100.00;103484.84;10198981;28;20077;-63
2022/01/13 05:05:42;;;;;;;65.72;22.05;;;;;;;5.03;100.00;103485.84;10165747;28;20046;-65
2022/01/13 05:10:39;;;;;;;56.63;19.02;;;;;;;5.04;100.00;103473.97;10159694;28;20077;-64
2022/01/13 05:15:37;;;;;;;58.13;22.05;;;;;;;5.04;100.00;103476.69;10155468;28;20134;-65
2022/01/13 05:20:40;;;;;;;36.05;14.48;;;;;;;4.97;100.00;103470.44;10162468;28;20050;-65
2022/01/13 05:25:37;;;;;;;52.97;19.37;;;;;;;5.05;100.00;103452.03;10152443;28;20077;-65
2022/01/13 05:30:34;;;;;;;55.15;21.83;;;;;;;5.12;100.00;103456.63;10155080;28;20496;-63
2022/01/13 05:35:32;;;;;;;55.97;20.15;;;;;;;5.08;100.00;103467.03;10162620;28;20049;-72
2022/01/13 05:40:29;;;;;;;51.67;21.77;;;;;;;5.08;100.00;103461.63;10160154;28;20042;-72
2022/01/13 05:45:29;;;;;;;63.65;23.08;;;;;;;5.13;100.00;103458.28;10155201;28;20051;-69
2022/01/13 05:50:27;;;;;;;56.53;21.48;;;;;;;5.23;100.00;103454.06;10155477;28;20521;-70
2022/01/13 05:55:24;;;;;;;63.92;23.38;;;;;;;5.23;100.00;103456.78;10150734;28;20123;-70
2022/01/13 06:00:23;;;;;;;62.63;22.17;;;;;;;5.21;100.00;103455.34;10153466;28;20545;-70
2022/01/13 06:05:20;;;;;;;67.72;22.67;;;;;;;5.18;100.00;103444.91;10149294;28;20073;-71
2022/01/13 06:10:19;;;;;;;59.58;22.52;;;;;;;5.22;100.00;103452.41;10153603;28;20465;-71
2022/01/13 06:15:19;;;;;;;57.42;23.80;;;;;;;5.28;100.00;103451.53;10156082;28;20562;-70
2022/01/13 06:20:17;;;;;;;61.10;24.45;;;;;;;5.21;100.00;103450.72;10155371;28;20050;-70
2022/01/13 06:25:15;;;;;;;60.67;25.20;;;;;;;5.30;100.00;103445.06;10162687;28;20726;-72
2022/01/13 06:30:14;;;;;;;67.93;26.10;;;;;;;5.28;100.00;103448.81;10177494;28;20054;-72
2022/01/13 06:35:11;;;;;;;60.85;26.23;;;;;;;5.34;100.00;103443.56;10179518;28;20077;-72
2022/01/13 06:40:10;;;;;;;55.30;24.33;;;;;;;5.40;100.00;103450.88;10188106;28;20073;-73
2022/01/13 06:45:10;;;;;;;60.03;23.33;;;;;;;5.36;100.00;103452.34;10155576;28;20465;-72
2022/01/13 06:50:08;;;;;;;62.22;24.15;;;;;;;5.46;100.00;103452.72;10142500;28;20046;-70
2022/01/13 06:55:05;;;;;;;50.88;22.75;;;;;;;5.49;100.00;103452.28;10155576;28;20489;-71
2022/01/13 07:00:03;;;;;;;48.90;21.95;;;;;;;5.53;100.00;103450.81;10156879;28;20693;-71
2022/01/13 07:04:59;;;;;;;54.08;23.02;;;;;;;5.55;100.00;103456.84;10170223;28;20054;-70
2022/01/13 07:09:55;;;;;;;64.15;25.08;;;;;;;5.55;100.00;103454.13;10153940;28;20051;-72
2022/01/13 07:14:52;;;;;;;53.08;21.23;;;;;;;5.54;100.00;103460.59;10167475;28;20084;-72
2022/01/13 07:19:51;;;;;;;51.72;22.38;;;;;;;5.55;100.00;103473.13;10169741;28;20100;-71
2022/01/13 07:24:48;;;;;;;47.60;21.27;;;;;;;5.54;100.00;103476.88;10158215;28;20576;-72
2022/01/13 07:29:45;;;;;;;56.53;21.17;;;;;;;5.59;100.00;103490.66;10158174;28;20081;-73
2022/01/13 07:34:42;;;;;;;56.78;19.75;;;;;;;5.60;100.00;103486.88;10154068;28;20043;-73
2022/01/13 07:39:43;;;;;;;50.00;19.38;;;;;;;5.58;100.00;103516.13;10174987;28;20077;-72
2022/01/13 07:44:40;;;;;;;49.85;19.60;;;;;;;5.61;100.00;103502.09;10146995;28;20042;-71
2022/01/13 07:49:37;;;;;;;46.38;19.92;;;;;;;5.59;100.00;103504.25;10147529;28;20046;-72
2022/01/13 07:54:33;;;;;;;44.80;20.05;;;;;;;5.57;100.00;103503.63;10148283;28;20082;-73
2022/01/13 07:59:30;;;;;;;49.10;19.75;;;;;;;5.60;100.00;103505.06;10148604;28;20506;-73
2022/01/13 08:04:27;;;;;;;47.67;19.88;;;;;;;5.57;100.00;103506.31;10146605;28;20078;-73
2022/01/13 08:09:25;;;;;;;50.38;20.70;;;;;;;5.56;100.00;103512.78;10148787;28;20043;-72
2022/01/13 08:14:21;;;;;;;56.35;23.80;;;;;;;5.46;100.00;103528.72;10150561;28;20065;-72
2022/01/13 08:24:33;;;;;;;47.20;20.35;;;;;;;5.56;100.00;103529.06;10161172;28;20077;-73
2022/01/13 08:29:29;;;;;;;52.20;21.65;;;;;;;5.53;100.00;103529.50;10155690;28;20104;-72
2022/01/13 08:34:26;;;;;;;36.00;15.80;;;;;;;5.42;100.00;103527.47;10185995;28;20100;-73
2022/01/13 08:39:22;;;;;;;48.70;22.35;;;;;;;5.45;100.00;103537.88;10143843;28;20046;-72
2022/01/13 08:44:19;;;;;;;54.10;20.42;;;;;;;5.37;100.00;103524.56;10152253;28;20681;-72
2022/01/13 08:49:15;;;;;;;53.22;21.08;;;;;;;5.37;100.00;103521.84;10156972;28;20494;-72
2022/01/13 08:54:12;;;;;;;60.58;23.60;;;;;;;5.37;100.00;103535.41;10155919;28;21925;-72
2022/01/13 08:59:08;;;;;;;49.28;20.98;;;;;;;5.33;100.00;103534.16;10151228;28;20100;-72
2022/01/13 09:04:05;;;;;;;54.90;23.77;;;;;;;5.31;100.00;103534.38;10157150;28;20121;-72
2022/01/13 09:09:02;;;;;;;58.45;24.83;;;;;;;5.33;100.00;103517.88;10155667;28;20085;-74
2022/01/13 09:13:59;;;;;;;54.00;24.48;;;;;;;5.25;100.00;103514.38;10143175;28;20042;-73
2022/01/13 09:23:52;;;;;;;55.35;22.98;;;;;;;5.25;100.00;103516.25;10151717;28;20042;-73
2022/01/13 09:28:49;;;;;;;43.28;17.40;;;;;;;5.19;100.00;103517.94;10160723;28;20066;-73
2022/01/13 09:33:45;;;;;;;55.60;21.00;;;;;;;5.27;100.00;103503.31;10160766;28;20105;-73
2022/01/13 09:38:42;;;;;;;41.58;16.92;;;;;;;5.21;100.00;103499.56;10158148;28;20046;-73
2022/01/13 09:43:43;;;;;;;51.08;21.00;;;;;;;5.21;100.00;103493.31;10159775;28;20073;-73
2022/01/13 09:48:41;;;;;;;44.88;19.25;;;;;;;5.19;100.00;103490.81;10156919;28;20042;-73
2022/01/13 09:53:38;;;;;;;44.25;20.23;;;;;;;5.26;100.00;103475.34;10157175;28;20051;-71
2022/01/13 09:58:34;;;;;;;55.13;23.23;;;;;;;5.31;100.00;103484.72;10152482;28;20506;-71
2022/01/13 10:03:31;;;;;;;48.70;21.13;;;;;;;5.35;100.00;103475.09;10153730;28;20137;-71
2022/01/13 10:08:46;;;;;;;56.30;22.10;;;;;;;5.26;100.00;103467.19;10153608;28;20498;-71
2022/01/13 10:13:51;;;;;;;54.83;20.45;;;;;;;5.30;100.00;103485.78;10152640;28;20433;-71
2022/01/13 10:18:48;;;;;;;47.88;20.27;;;;;;;5.30;100.00;103485.78;10151398;28;20039;-72
2022/01/13 10:24:02;;;;;;;48.05;19.42;;;;;;;5.28;100.00;103478.66;10153881;28;20129;-73
2022/01/13 10:29:00;;;;;;;43.15;18.08;;;;;;;5.26;100.00;103485.34;10172769;28;20092;-73
2022/01/13 10:33:57;;;;;;;44.88;20.13;;;;;;;5.34;100.00;103478.84;10180831;28;20485;-73
2022/01/13 10:38:56;;;;;;;46.78;19.40;;;;;;;5.33;100.00;103474.47;10186432;28;20096;-73
2022/01/13 10:44:31;;;;;;;47.90;20.20;;;;;;;5.27;100.00;103471.59;10174423;28;20105;-74
2022/01/13 10:49:35;;;;;;;42.97;16.98;;;;;;;5.33;100.00;103469.06;10234833;28;20067;-73
2022/01/13 10:54:31;;;;;;;48.92;19.88;;;;;;;5.36;100.00;103474.03;10175656;28;20065;-73
2022/01/13 10:59:34;;;;;;;42.72;17.70;;;;;;;5.34;100.00;103459.84;10162687;28;20564;-72
2022/01/13 11:04:34;;;;;;;45.47;19.42;;;;;;;5.31;100.00;103444.84;10159975;28;20497;-73
2022/01/13 11:09:30;;;;;;;47.35;19.92;;;;;;;5.26;100.00;103461.75;10156700;28;20388;-73
2022/01/13 11:14:27;;;;;;;49.17;19.27;;;;;;;5.27;100.00;103449.88;10150224;28;20104;-73
2022/01/13 11:19:24;;;;;;;49.28;21.25;;;;;;;5.32;100.00;103453.84;10147446;28;20034;-74
2022/01/13 11:24:20;;;;;;;49.53;20.35;;;;;;;5.31;100.00;103452.16;10147040;28;20164;-73
2022/01/13 11:29:17;;;;;;;49.72;19.80;;;;;;;5.33;100.00;103461.75;10151176;28;20050;-74
2022/01/13 11:34:16;;;;;;;52.20;21.95;;;;;;;5.34;100.00;103454.44;10147887;28;20533;-74
2022/01/13 11:39:12;;;;;;;50.05;21.73;;;;;;;5.40;100.00;103450.88;10151692;28;20067;-74
2022/01/13 11:44:13;;;;;;;47.08;21.30;;;;;;;5.41;100.00;103455.25;10148887;28;20514;-74
2022/01/13 11:49:20;;;;;;;45.95;19.73;;;;;;;5.46;100.00;103458.16;10151912;28;20104;-74
2022/01/13 11:54:35;;;;;;;47.83;20.38;;;;;;;5.45;100.00;103451.03;10146245;28;20464;-74
2022/01/13 11:59:55;;;;;;;47.38;20.30;;;;;;;5.40;100.00;103448.16;10162306;28;20129;-72
2022/01/13 12:05:06;;;;;;;50.42;19.92;;;;;;;5.49;100.00;103442.25;10181534;28;20576;-73
2022/01/13 12:10:07;;;;;;;49.47;20.90;;;;;;;5.44;100.00;103449.41;10136998;28;20055;-73
2022/01/13 12:15:16;;;;;;;51.33;23.77;;;;;;;5.51;100.00;103433.91;10147822;28;20120;-74
2022/01/13 12:20:25;;;;;;;44.42;19.75;;;;;;;5.48;100.00;103434.34;10180844;28;20121;-73
2022/01/13 12:25:31;;;;;;;43.65;15.40;;;;;;;5.43;100.00;103431.44;10172396;28;20069;-74
2022/01/13 12:30:29;;;;;;;50.72;19.33;;;;;;;5.50;100.00;103424.13;10170305;28;20074;-74
2022/01/13 12:35:47;;;;;;;37.20;16.95;;;;;;;5.61;100.00;103428.81;10161165;28;20427;-74
2022/01/13 12:41:16;;;;;;;52.42;19.45;;;;;;;5.48;100.00;103423.50;10164295;28;20097;-74
2022/01/13 12:46:19;;;;;;;50.08;19.10;;;;;;;5.47;100.00;103421.81;10142447;28;20410;-68
2022/01/13 12:51:17;;;;;;;54.53;19.52;;;;;;;5.44;100.00;103427.69;10176920;28;20136;-71
2022/01/13 12:56:19;;;;;;;55.72;19.92;;;;;;;5.45;100.00;103394.06;10172339;28;20089;-71
2022/01/13 13:01:19;;;;;;;46.63;20.45;;;;;;;5.47;100.00;103389.25;10173403;28;20502;-71
2022/01/13 13:06:16;;;;;;;52.40;20.13;;;;;;;5.57;100.00;103388.75;10180102;28;20057;-71
2022/01/13 13:11:14;;;;;;;48.25;19.92;;;;;;;5.61;100.00;103387.28;10198389;28;20049;-71
2022/01/13 13:16:19;;;;;;;58.67;23.17;;;;;;;5.62;100.00;103381.66;10189860;28;20236;-71
2022/01/13 13:21:23;;;;;;;55.63;22.60;;;;;;;5.70;100.00;103384.09;10172710;28;20068;-70
2022/01/13 13:26:22;;;;;;;44.40;19.45;;;;;;;5.77;100.00;103383.22;10174801;28;20046;-71
2022/01/13 13:31:30;;;;;;;47.53;21.50;;;;;;;5.83;100.00;103382.34;10181625;28;20046;-71
2022/01/13 13:36:37;;;;;;;52.03;21.08;;;;;;;5.87;100.00;103378.09;10171188;28;20077;-71
2022/01/13 13:41:48;;;;;;;41.83;16.67;;;;;;;5.93;100.00;103366.38;10159645;28;20085;-71
2022/01/13 13:46:51;;;;;;;46.20;17.92;;;;;;;6.03;100.00;103350.44;10162076;28;20057;-71
2022/01/13 13:52:14;;;;;;;42.65;16.17;;;;;;;6.16;100.00;103359.53;10156004;28;20051;-71
2022/01/13 13:57:29;;;;;;;43.72;15.63;;;;;;;6.14;100.00;103351.59;10157456;28;20049;-71
2022/01/13 14:02:35;;;;;;;40.63;15.95;;;;;;;6.19;100.00;103354.47;10150475;28;20038;-71
2022/01/13 14:07:39;;;;;;;38.20;15.05;;;;;;;6.22;100.00;103355.91;10154571;28;20050;-71
2022/01/13 14:12:49;;;;;;;36.03;16.02;;;;;;;6.26;100.00;103354.41;10156164;28;20046;-71
2022/01/13 14:17:52;;;;;;;38.70;16.15;;;;;;;6.31;100.00;103347.25;10156888;28;20085;-71
2022/01/13 14:23:04;;;;;;;33.95;15.98;;;;;;;6.36;100.00;103360.16;10159648;28;20054;-71
2022/01/13 14:28:25;;;;;;;37.35;12.90;;;;;;;6.35;100.00;103363.09;10146541;28;20051;-71
2022/01/13 14:33:29;;;;;;;42.33;14.70;;;;;;;6.34;100.00;103354.13;10156840;28;20080;-71
2022/01/13 14:38:57;;;;;;;36.17;15.07;;;;;;;6.31;100.00;103357.28;10138340;28;20038;-74
2022/01/13 14:44:06;;;;;;;33.33;13.90;;;;;;;6.38;100.00;103352.59;10178461;28;20085;-74
2022/01/13 14:49:05;;;;;;;37.47;12.77;;;;;;;6.37;100.00;103350.13;10158701;28;20053;-75
2022/01/13 14:54:03;;;;;;;33.85;14.73;;;;;;;6.39;100.00;103348.84;10167420;28;20125;-74
2022/01/13 14:59:00;;;;;;;35.58;12.95;;;;;;;6.38;100.00;103347.16;10162456;28;20525;-74
2022/01/13 15:03:56;;;;;;;34.03;11.90;;;;;;;6.41;100.00;103352.16;10164588;28;20054;-74
2022/01/13 15:08:54;;;;;;;38.38;13.55;;;;;;;6.39;100.00;103342.59;10152707;28;20054;-73
2022/01/13 15:13:52;;;;;;;27.40;10.75;;;;;;;6.43;100.00;103339.19;10152497;28;20050;-73
2022/01/13 15:18:52;;;;;;;32.42;11.35;;;;;;;6.45;100.00;103347.94;10168099;28;20047;-73
2022/01/13 15:23:49;;;;;;;27.38;10.80;;;;;;;6.46;100.00;103360.47;10163617;28;20050;-73
2022/01/13 15:28:45;;;;;;;30.65;11.43;;;;;;;6.49;100.00;103353.75;10158411;28;20253;-72
2022/01/13 15:33:42;;;;;;;27.17;9.20;;;;;;;6.47;100.00;103353.97;10181993;28;20130;-68
2022/01/13 15:38:39;;;;;;;19.17;8.77;;;;;;;6.48;100.00;103358.38;10162425;28;20116;-69
2022/01/13 15:43:36;;;;;;;27.20;8.93;;;;;;;6.44;100.00;103353.59;10169931;28;20042;-69
2022/01/13 15:48:32;;;;;;;17.65;5.97;;;;;;;6.50;100.00;103356.25;10173284;28;20051;-69
2022/01/13 15:53:29;;;;;;;24.67;9.95;;;;;;;6.51;100.00;103360.63;10170058;28;20077;-69
2022/01/13 15:58:25;;;;;;;24.52;7.80;;;;;;;6.44;100.00;103359.88;10179596;28;20112;-69
2022/01/13 16:03:22;;;;;;;24.70;10.10;;;;;;;6.41;100.00;103368.47;10171782;28;20050;-69
2022/01/13 16:08:18;;;;;;;28.40;11.20;;;;;;;6.46;100.00;103375.97;10177764;28;20557;-69
2022/01/13 16:13:18;;;;;;;32.60;12.32;;;;;;;6.42;100.00;103370.13;10177990;28;20473;-69
2022/01/13 16:18:14;;;;;;;24.30;11.35;;;;;;;6.44;100.00;103373.44;10178652;28;20050;-69
2022/01/13 16:23:11;;;;;;;28.20;9.07;;;;;;;6.41;100.00;103375.81;10173327;28;20047;-69
2022/01/13 16:28:07;;;;;;;30.77;11.23;;;;;;;6.45;100.00;103380.56;10175668;28;20046;-69
2022/01/13 16:33:04;;;;;;;22.67;10.65;;;;;;;6.35;100.00;103363.09;10157335;28;20108;-69
2022/01/13 16:38:02;;;;;;;24.75;10.73;;;;;;;6.39;100.00;103370.59;10177862;28;20066;-69
2022/01/13 16:43:04;;;;;;;18.45;9.88;;;;;;;6.38;100.00;103358.03;10165760;28;20517;-70
2022/01/13 16:48:02;;;;;;;23.58;9.07;;;;;;;6.35;100.00;103358.50;10174459;28;20053;-69
2022/01/13 16:53:00;;;;;;;20.08;7.90;;;;;;;6.37;100.00;103361.81;10168717;28;20509;-69
2022/01/13 16:57:57;;;;;;;22.40;9.88;;;;;;;6.40;100.00;103355.94;10180087;28;20064;-69
2022/01/13 17:02:53;;;;;;;26.50;9.48;;;;;;;6.35;100.00;103342.19;10198510;28;20096;-69
2022/01/13 17:08:11;;;;;;;20.27;9.27;;;;;;;6.36;100.00;103343.88;10158626;28;20054;-69
2022/01/13 17:13:08;;;;;;;20.83;9.52;;;;;;;6.39;100.00;103334.44;10189033;28;20097;-69
2022/01/13 17:18:05;;;;;;;23.67;8.93;;;;;;;6.39;100.00;103331.72;10182937;28;20587;-68
2022/01/13 17:23:03;;;;;;;26.30;10.98;;;;;;;6.33;100.00;103322.56;10196678;28;20590;-69
2022/01/13 17:28:00;;;;;;;39.85;10.23;;;;;;;6.37;100.00;103312.91;10143442;28;20050;-69
2022/01/13 17:32:56;;;;;;;21.92;9.38;;;;;;;6.41;100.00;103313.31;10151490;28;20104;-67
2022/01/13 17:37:56;;;;;;;23.38;8.80;;;;;;;6.39;100.00;103316.22;10161572;28;20046;-67
2022/01/13 17:42:53;;;;;;;18.02;9.27;;;;;;;6.38;100.00;103303.69;10153538;28;20141;-67
2022/01/13 17:47:50;;;;;;;23.05;8.07;;;;;;;6.38;100.00;103302.88;10156598;28;20129;-67
2022/01/13 17:52:46;;;;;;;27.13;10.70;;;;;;;6.39;100.00;103310.78;10160750;28;20561;-67
2022/01/13 17:57:44;;;;;;;28.85;9.90;;;;;;;6.40;100.00;103290.69;10162211;28;20054;-68
2022/01/13 18:02:43;;;;;;;26.40;9.73;;;;;;;6.44;100.00;103302.78;10162478;28;20042;-66
2022/01/13 18:07:40;;;;;;;28.73;11.35;;;;;;;6.45;100.00;103290.88;10140790;28;20538;-68
2022/01/13 18:12:37;;;;;;;24.98;9.98;;;;;;;6.49;100.00;103289.34;10154936;28;20763;-67
2022/01/13 18:17:34;;;;;;;24.52;9.55;;;;;;;6.42;100.00;103307.63;10159785;28;20392;-67
2022/01/13 18:22:31;;;;;;;33.13;11.48;;;;;;;6.39;100.00;103291.78;10175953;28;20193;-68
2022/01/13 18:27:28;;;;;;;19.38;9.43;;;;;;;6.38;100.00;103295.53;10170238;28;20080;-67
2022/01/13 18:32:24;;;;;;;23.30;9.85;;;;;;;6.37;100.00;103288.44;10154118;28;20663;-68
2022/01/13 18:37:21;;;;;;;27.52;10.48;;;;;;;6.42;100.00;103291.31;10165614;28;20098;-68
2022/01/13 18:42:19;;;;;;;25.98;9.40;;;;;;;6.39;100.00;103293.66;10168436;28;20077;-67
2022/01/13 18:47:16;;;;;;;24.60;9.05;;;;;;;6.43;100.00;103290.28;10155488;28;20120;-68
2022/01/13 18:52:13;;;;;;;22.13;7.90;;;;;;;6.42;100.00;103288.59;10159827;28;20053;-68
2022/01/13 18:57:11;;;;;;;28.80;8.95;;;;;;;6.43;100.00;103284.84;10143207;28;20047;-67
2022/01/13 19:02:07;;;;;;;26.70;9.27;;;;;;;6.34;100.00;103291.63;10166272;28;20181;-68
2022/01/13 19:07:04;;;;;;;24.38;8.27;;;;;;;6.42;100.00;103279.63;10163019;28;20418;-67
2022/01/13 19:12:00;;;;;;;23.52;7.65;;;;;;;6.37;100.00;103269.44;10177222;28;20050;-67
2022/01/13 19:17:04;;;;;;;22.38;7.13;;;;;;;6.34;100.00;103260.91;10161970;28;20053;-66
2022/01/13 19:22:07;;;;;;;20.40;5.85;;;;;;;6.33;100.00;103257.34;10284691;28;20626;-67
2022/01/13 19:27:04;;;;;;;21.30;6.50;;;;;;;6.39;100.00;103261.88;10247040;28;20049;-66
2022/01/13 19:32:01;;;;;;;32.15;6.28;;;;;;;6.36;100.00;103256.06;10230922;28;20049;-66
2022/01/13 19:36:57;;;;;;;23.08;7.65;;;;;;;6.43;100.00;103257.66;10240087;28;20085;-66
2022/01/13 19:41:55;;;;;;;17.10;5.47;;;;;;;6.41;100.00;103243.47;10209328;28;20402;-66
2022/01/13 19:46:52;;;;;;;19.77;5.03;;;;;;;6.37;100.00;103230.56;10232795;28;20046;-68
2022/01/13 19:51:48;;;;;;;17.88;4.85;;;;;;;6.41;100.00;103232.59;10219264;28;20178;-68
2022/01/13 19:56:45;;;;;;;22.35;5.03;;;;;;;6.39;100.00;103234.72;10237589;28;20096;-67
2022/01/13 20:01:41;;;;;;;17.92;5.53;;;;;;;6.41;100.00;103234.50;10193821;28;20057;-68
2022/01/13 20:06:38;;;;;;;13.45;3.15;;;;;;;6.35;100.00;103238.94;10239268;28;20691;-67
2022/01/13 20:11:41;;;;;;;12.43;2.80;;;;;;;6.31;100.00;103243.16;10233965;28;20098;-68
2022/01/13 20:16:43;;;;;;;14.43;3.60;;;;;;;6.32;100.00;103223.09;10228071;28;20070;-68
2022/01/13 20:21:40;;;;;;;15.70;3.23;;;;;;;6.35;100.00;103222.63;10199414;28;20081;-68
2022/01/13 20:26:36;;;;;;;10.00;2.45;;;;;;;6.36;100.00;103229.75;10242868;28;20463;-67
2022/01/13 20:31:35;;;;;;;21.67;4.13;;;;;;;6.27;100.00;103240.06;10196299;28;20069;-67
2022/01/13 20:36:32;;;;;;;8.13;2.15;;;;;;;6.26;100.00;103234.84;10191667;28;20042;-66
2022/01/13 20:41:28;;;;;;;14.68;3.17;;;;;;;6.25;100.00;103230.50;10174937;28;20783;-66
2022/01/13 20:46:26;;;;;;;17.33;3.10;;;;;;;6.25;100.00;103233.22;10173160;28;20081;-66
2022/01/13 20:51:22;;;;;;;13.55;2.60;;;;;;;6.23;100.00;103251.63;10177850;28;20057;-65
2022/01/13 20:56:19;;;;;;;19.38;3.75;;;;;;;6.25;100.00;103235.94;10166724;28;20078;-66
2022/01/13 21:01:16;;;;;;;14.18;3.00;;;;;;;6.28;100.00;103238.19;10190827;28;22047;-66
2022/01/13 21:06:13;;;;;;;14.48;2.78;;;;;;;6.23;100.00;103224.44;10186991;28;20564;-66
2022/01/13 21:11:14;;;;;;;14.77;2.95;;;;;;;6.24;100.00;103217.94;10195521;28;20049;-66
2022/01/13 21:16:14;;;;;;;13.90;3.40;;;;;;;6.13;100.00;103225.00;10213753;28;20080;-67
2022/01/13 21:21:10;;;;;;;9.98;2.70;;;;;;;6.18;100.00;103219.69;10160281;28;20042;-66
2022/01/13 21:26:07;;;;;;;19.38;2.95;;;;;;;6.23;100.00;103219.84;10211796;28;20046;-66
2022/01/13 21:31:04;;;;;;;7.78;2.13;;;;;;;6.19;100.00;103224.06;10171264;28;20469;-64
2022/01/13 21:36:01;;;;;;;14.57;2.97;;;;;;;6.18;100.00;103232.47;10198396;28;20148;-64
2022/01/13 21:41:00;;;;;;;13.48;2.75;;;;;;;6.15;100.00;103232.91;10183843;28;20141;-65
2022/01/13 21:45:57;;;;;;;9.60;2.63;;;;;;;6.13;100.00;103226.84;10184805;28;20093;-66
2022/01/13 21:50:54;;;;;;;17.20;3.35;;;;;;;6.20;100.00;103235.78;10175979;28;20138;-66
2022/01/13 21:55:51;;;;;;;16.15;2.47;;;;;;;6.17;100.00;103225.34;10198406;28;20457;-67
2022/01/13 22:00:48;;;;;;;13.80;2.53;;;;;;;6.20;100.00;103235.78;10179208;28;20050;-66
2022/01/13 22:05:45;;;;;;;7.10;1.40;;;;;;;6.14;100.00;103236.69;10183388;28;20099;-66
2022/01/13 22:10:42;;;;;;;19.85;3.33;;;;;;;6.09;100.00;103231.94;10179467;28;20104;-65
2022/01/13 22:15:38;;;;;;;12.23;2.80;;;;;;;6.18;100.00;103240.63;10196664;28;20088;-65
2022/01/13 22:20:36;;;;;;;14.23;2.83;;;;;;;6.21;100.00;103229.28;10187926;28;20453;-65
2022/01/13 22:25:33;;;;;;;14.65;3.10;;;;;;;6.24;100.00;103228.81;10196063;28;20049;-65
2022/01/13 22:30:29;;;;;;;13.52;4.22;;;;;;;6.21;100.00;103237.44;10186204;28;20049;-66
2022/01/13 22:35:26;;;;;;;24.50;5.07;;;;;;;6.22;100.00;103220.06;10199266;28;20073;-65
2022/01/13 22:40:22;;;;;;;19.48;3.70;;;;;;;6.21;100.00;103219.25;10204026;28;20137;-65
2022/01/13 22:45:19;;;;;;;17.40;2.88;;;;;;;6.21;100.00;103207.53;10198016;28;20119;-65
2022/01/13 22:50:16;;;;;;;16.50;3.13;;;;;;;6.20;100.00;103211.34;10212412;28;20089;-66
2022/01/13 22:55:12;;;;;;;13.40;3.80;;;;;;;6.19;100.00;103198.78;10193980;28;20076;-66